sensor_id;sensor_type;location;lat;lon;timestamp;temperature;humidity
7658;DHT22;8462;53.156;8.220;2022-11-23T00:01:17;9.60;86.10
7658;DHT22;8462;53.156;8.220;2022-11-23T00:03:46;9.50;86.30
7658;DHT22;8462;53.156;8.220;2022-11-23T00:06:14;9.50;86.40
7658;DHT22;8462;53.156;8.220;2022-11-23T00:08:42;9.60;86.60
7658;DHT22;8462;53.156;8.220;2022-11-23T00:11:10;9.60;86.80
7658;DHT22;8462;53.156;8.220;2022-11-23T00:13:38;9.50;87.00
7658;DHT22;8462;53.156;8.220;2022-11-23T00:16:05;9.50;87.30
7658;DHT22;8462;53.156;8.220;2022-11-23T00:18:32;9.50;87.40
7658;DHT22;8462;53.156;8.220;2022-11-23T00:20:59;9.50;87.50
7658;DHT22;8462;53.156;8.220;2022-11-23T00:23:26;9.50;87.70
7658;DHT22;8462;53.156;8.220;2022-11-23T00:25:54;9.50;88.70
7658;DHT22;8462;53.156;8.220;2022-11-23T00:28:22;9.50;87.90
7658;DHT22;8462;53.156;8.220;2022-11-23T00:30:49;9.60;87.90
7658;DHT22;8462;53.156;8.220;2022-11-23T00:33:16;9.50;88.00
7658;DHT22;8462;53.156;8.220;2022-11-23T00:35:43;9.50;88.20
7658;DHT22;8462;53.156;8.220;2022-11-23T00:38:11;9.50;88.20
7658;DHT22;8462;53.156;8.220;2022-11-23T00:40:38;9.50;88.40
7658;DHT22;8462;53.156;8.220;2022-11-23T00:43:06;9.60;88.70
7658;DHT22;8462;53.156;8.220;2022-11-23T00:45:34;9.60;88.80
7658;DHT22;8462;53.156;8.220;2022-11-23T00:48:01;9.60;88.90
7658;DHT22;8462;53.156;8.220;2022-11-23T00:50:28;9.60;88.80
7658;DHT22;8462;53.156;8.220;2022-11-23T00:52:55;9.70;89.00
7658;DHT22;8462;53.156;8.220;2022-11-23T00:55:22;9.70;89.00
7658;DHT22;8462;53.156;8.220;2022-11-23T00:57:49;9.70;89.20
7658;DHT22;8462;53.156;8.220;2022-11-23T01:00:16;9.70;89.40
7658;DHT22;8462;53.156;8.220;2022-11-23T01:02:44;9.70;89.40
7658;DHT22;8462;53.156;8.220;2022-11-23T01:05:11;9.70;89.20
7658;DHT22;8462;53.156;8.220;2022-11-23T01:07:38;9.70;89.30
7658;DHT22;8462;53.156;8.220;2022-11-23T01:10:06;9.70;89.50
7658;DHT22;8462;53.156;8.220;2022-11-23T01:12:33;9.70;89.70
7658;DHT22;8462;53.156;8.220;2022-11-23T01:15:00;9.70;89.70
7658;DHT22;8462;53.156;8.220;2022-11-23T01:17:27;9.70;89.60
7658;DHT22;8462;53.156;8.220;2022-11-23T01:19:56;9.70;89.50
7658;DHT22;8462;53.156;8.220;2022-11-23T01:22:23;9.80;89.60
7658;DHT22;8462;53.156;8.220;2022-11-23T01:24:50;9.80;89.60
7658;DHT22;8462;53.156;8.220;2022-11-23T01:27:17;9.70;90.00
7658;DHT22;8462;53.156;8.220;2022-11-23T01:29:43;9.70;90.10
7658;DHT22;8462;53.156;8.220;2022-11-23T01:32:10;9.70;90.20
7658;DHT22;8462;53.156;8.220;2022-11-23T01:34:37;9.70;90.30
7658;DHT22;8462;53.156;8.220;2022-11-23T01:37:05;9.70;90.30
7658;DHT22;8462;53.156;8.220;2022-11-23T01:39:32;9.70;90.40
7658;DHT22;8462;53.156;8.220;2022-11-23T01:41:59;9.60;90.50
7658;DHT22;8462;53.156;8.220;2022-11-23T01:44:28;9.60;90.70
7658;DHT22;8462;53.156;8.220;2022-11-23T01:46:57;9.60;90.80
7658;DHT22;8462;53.156;8.220;2022-11-23T01:49:25;9.70;90.80
7658;DHT22;8462;53.156;8.220;2022-11-23T01:51:55;9.60;90.70
7658;DHT22;8462;53.156;8.220;2022-11-23T01:54:28;9.70;90.70
7658;DHT22;8462;53.156;8.220;2022-11-23T01:56:59;9.70;90.80
7658;DHT22;8462;53.156;8.220;2022-11-23T01:59:27;9.70;90.70
7658;DHT22;8462;53.156;8.220;2022-11-23T02:01:56;9.70;90.80
7658;DHT22;8462;53.156;8.220;2022-11-23T02:04:28;9.70;90.70
7658;DHT22;8462;53.156;8.220;2022-11-23T02:06:59;9.70;90.70
7658;DHT22;8462;53.156;8.220;2022-11-23T02:09:30;9.70;90.60
7658;DHT22;8462;53.156;8.220;2022-11-23T02:11:57;9.70;90.70
7658;DHT22;8462;53.156;8.220;2022-11-23T02:14:24;9.70;90.60
7658;DHT22;8462;53.156;8.220;2022-11-23T02:16:54;9.80;90.60
7658;DHT22;8462;53.156;8.220;2022-11-23T02:19:32;9.80;90.50
7658;DHT22;8462;53.156;8.220;2022-11-23T02:22:05;9.80;90.50
7658;DHT22;8462;53.156;8.220;2022-11-23T02:24:40;9.80;90.60
7658;DHT22;8462;53.156;8.220;2022-11-23T02:27:11;9.70;90.60
7658;DHT22;8462;53.156;8.220;2022-11-23T02:29:38;9.80;90.80
7658;DHT22;8462;53.156;8.220;2022-11-23T02:32:05;9.80;90.80
7658;DHT22;8462;53.156;8.220;2022-11-23T02:34:32;9.80;90.80
7658;DHT22;8462;53.156;8.220;2022-11-23T02:36:59;9.80;90.80
7658;DHT22;8462;53.156;8.220;2022-11-23T02:39:31;9.80;90.80
7658;DHT22;8462;53.156;8.220;2022-11-23T02:42:00;9.80;90.80
7658;DHT22;8462;53.156;8.220;2022-11-23T02:44:34;9.90;90.80
7658;DHT22;8462;53.156;8.220;2022-11-23T02:47:05;9.90;90.90
7658;DHT22;8462;53.156;8.220;2022-11-23T02:49:33;9.80;90.90
7658;DHT22;8462;53.156;8.220;2022-11-23T02:52:00;9.80;91.00
7658;DHT22;8462;53.156;8.220;2022-11-23T02:54:28;9.90;91.00
7658;DHT22;8462;53.156;8.220;2022-11-23T02:56:56;9.90;90.90
7658;DHT22;8462;53.156;8.220;2022-11-23T02:59:23;9.90;90.90
7658;DHT22;8462;53.156;8.220;2022-11-23T03:01:54;9.90;90.90
7658;DHT22;8462;53.156;8.220;2022-11-23T03:04:20;9.90;90.90
7658;DHT22;8462;53.156;8.220;2022-11-23T03:06:47;9.90;90.80
7658;DHT22;8462;53.156;8.220;2022-11-23T03:09:15;9.90;90.80
7658;DHT22;8462;53.156;8.220;2022-11-23T03:11:42;9.90;90.80
7658;DHT22;8462;53.156;8.220;2022-11-23T03:14:09;9.90;90.80
7658;DHT22;8462;53.156;8.220;2022-11-23T03:16:45;9.90;90.90
7658;DHT22;8462;53.156;8.220;2022-11-23T03:19:17;10.00;90.90
7658;DHT22;8462;53.156;8.220;2022-11-23T03:21:43;9.90;91.20
7658;DHT22;8462;53.156;8.220;2022-11-23T03:24:10;9.90;90.90
7658;DHT22;8462;53.156;8.220;2022-11-23T03:26:37;10.00;90.80
7658;DHT22;8462;53.156;8.220;2022-11-23T03:29:09;10.00;90.90
7658;DHT22;8462;53.156;8.220;2022-11-23T03:31:38;9.90;90.90
7658;DHT22;8462;53.156;8.220;2022-11-23T03:34:09;9.90;91.00
7658;DHT22;8462;53.156;8.220;2022-11-23T03:36:38;10.00;91.20
7658;DHT22;8462;53.156;8.220;2022-11-23T03:39:05;10.00;91.30
7658;DHT22;8462;53.156;8.220;2022-11-23T03:41:52;9.90;91.30
7658;DHT22;8462;53.156;8.220;2022-11-23T03:44:21;9.90;91.30
7658;DHT22;8462;53.156;8.220;2022-11-23T03:46:48;9.90;91.40
7658;DHT22;8462;53.156;8.220;2022-11-23T03:49:16;9.90;91.40
7658;DHT22;8462;53.156;8.220;2022-11-23T03:51:44;9.90;91.60
7658;DHT22;8462;53.156;8.220;2022-11-23T03:54:11;9.90;91.60
7658;DHT22;8462;53.156;8.220;2022-11-23T03:56:38;9.90;91.60
7658;DHT22;8462;53.156;8.220;2022-11-23T03:59:05;9.90;91.70
7658;DHT22;8462;53.156;8.220;2022-11-23T04:01:32;9.90;91.70
7658;DHT22;8462;53.156;8.220;2022-11-23T04:04:03;9.90;91.70
7658;DHT22;8462;53.156;8.220;2022-11-23T04:06:57;10.00;91.80
7658;DHT22;8462;53.156;8.220;2022-11-23T04:09:29;10.00;91.80
7658;DHT22;8462;53.156;8.220;2022-11-23T04:12:02;10.00;91.80
7658;DHT22;8462;53.156;8.220;2022-11-23T04:14:30;10.00;92.00
7658;DHT22;8462;53.156;8.220;2022-11-23T04:16:58;10.00;92.00
7658;DHT22;8462;53.156;8.220;2022-11-23T04:19:27;10.00;92.00
7658;DHT22;8462;53.156;8.220;2022-11-23T04:21:54;10.00;92.00
7658;DHT22;8462;53.156;8.220;2022-11-23T04:24:23;10.00;92.50
7658;DHT22;8462;53.156;8.220;2022-11-23T04:26:52;10.00;92.10
7658;DHT22;8462;53.156;8.220;2022-11-23T04:29:19;10.10;92.00
7658;DHT22;8462;53.156;8.220;2022-11-23T04:31:51;10.10;92.00
7658;DHT22;8462;53.156;8.220;2022-11-23T04:34:18;10.10;92.00
7658;DHT22;8462;53.156;8.220;2022-11-23T04:36:47;10.10;91.90
7658;DHT22;8462;53.156;8.220;2022-11-23T04:39:16;10.10;92.00
7658;DHT22;8462;53.156;8.220;2022-11-23T04:42:14;10.10;91.90
7658;DHT22;8462;53.156;8.220;2022-11-23T04:44:47;10.10;92.00
7658;DHT22;8462;53.156;8.220;2022-11-23T04:47:14;10.20;92.00
7658;DHT22;8462;53.156;8.220;2022-11-23T04:49:47;10.20;92.10
7658;DHT22;8462;53.156;8.220;2022-11-23T04:52:14;10.20;91.90
7658;DHT22;8462;53.156;8.220;2022-11-23T04:54:45;10.20;91.80
7658;DHT22;8462;53.156;8.220;2022-11-23T04:57:14;10.30;91.80
7658;DHT22;8462;53.156;8.220;2022-11-23T04:59:42;10.30;91.80
7658;DHT22;8462;53.156;8.220;2022-11-23T05:02:09;10.30;91.80
7658;DHT22;8462;53.156;8.220;2022-11-23T05:04:45;10.30;91.90
7658;DHT22;8462;53.156;8.220;2022-11-23T05:07:14;10.30;91.90
7658;DHT22;8462;53.156;8.220;2022-11-23T05:09:45;10.40;91.90
7658;DHT22;8462;53.156;8.220;2022-11-23T05:12:18;10.40;91.80
7658;DHT22;8462;53.156;8.220;2022-11-23T05:14:45;10.40;91.70
7658;DHT22;8462;53.156;8.220;2022-11-23T05:17:17;10.50;91.70
7658;DHT22;8462;53.156;8.220;2022-11-23T05:19:46;10.50;91.60
7658;DHT22;8462;53.156;8.220;2022-11-23T05:22:13;10.40;91.50
7658;DHT22;8462;53.156;8.220;2022-11-23T05:24:41;10.40;91.60
7658;DHT22;8462;53.156;8.220;2022-11-23T05:27:13;10.40;91.70
7658;DHT22;8462;53.156;8.220;2022-11-23T05:29:41;10.40;91.70
7658;DHT22;8462;53.156;8.220;2022-11-23T05:32:09;10.50;91.70
7658;DHT22;8462;53.156;8.220;2022-11-23T05:34:37;10.50;91.60
7658;DHT22;8462;53.156;8.220;2022-11-23T05:37:05;10.60;91.50
7658;DHT22;8462;53.156;8.220;2022-11-23T05:39:32;10.60;91.40
7658;DHT22;8462;53.156;8.220;2022-11-23T05:42:00;10.50;91.40
7658;DHT22;8462;53.156;8.220;2022-11-23T05:44:32;10.60;91.50
7658;DHT22;8462;53.156;8.220;2022-11-23T05:47:00;10.50;91.40
7658;DHT22;8462;53.156;8.220;2022-11-23T05:49:30;10.60;91.40
7658;DHT22;8462;53.156;8.220;2022-11-23T05:51:57;10.60;91.40
7658;DHT22;8462;53.156;8.220;2022-11-23T05:54:26;10.60;91.40
7658;DHT22;8462;53.156;8.220;2022-11-23T05:57:02;10.60;91.40
7658;DHT22;8462;53.156;8.220;2022-11-23T05:59:39;10.60;91.40
7658;DHT22;8462;53.156;8.220;2022-11-23T06:02:11;10.70;91.50
7658;DHT22;8462;53.156;8.220;2022-11-23T06:04:38;10.70;91.30
7658;DHT22;8462;53.156;8.220;2022-11-23T06:07:09;10.70;91.30
7658;DHT22;8462;53.156;8.220;2022-11-23T06:10:04;10.60;91.20
7658;DHT22;8462;53.156;8.220;2022-11-23T06:12:33;10.60;91.40
7658;DHT22;8462;53.156;8.220;2022-11-23T06:15:02;10.60;91.40
7658;DHT22;8462;53.156;8.220;2022-11-23T06:17:31;10.50;91.40
7658;DHT22;8462;53.156;8.220;2022-11-23T06:20:02;10.50;91.40
7658;DHT22;8462;53.156;8.220;2022-11-23T06:22:29;10.50;91.50
7658;DHT22;8462;53.156;8.220;2022-11-23T06:24:59;10.50;91.50
7658;DHT22;8462;53.156;8.220;2022-11-23T06:27:38;10.50;91.40
7658;DHT22;8462;53.156;8.220;2022-11-23T06:30:14;10.50;91.80
7658;DHT22;8462;53.156;8.220;2022-11-23T06:32:43;10.50;91.40
7658;DHT22;8462;53.156;8.220;2022-11-23T06:35:10;10.40;91.50
7658;DHT22;8462;53.156;8.220;2022-11-23T06:37:39;10.50;91.60
7658;DHT22;8462;53.156;8.220;2022-11-23T06:40:07;10.40;91.60
7658;DHT22;8462;53.156;8.220;2022-11-23T06:42:36;10.50;92.00
7658;DHT22;8462;53.156;8.220;2022-11-23T06:45:04;10.50;92.00
7658;DHT22;8462;53.156;8.220;2022-11-23T06:47:31;10.50;92.20
7658;DHT22;8462;53.156;8.220;2022-11-23T06:50:00;10.60;91.60
7658;DHT22;8462;53.156;8.220;2022-11-23T06:52:28;10.60;91.60
7658;DHT22;8462;53.156;8.220;2022-11-23T06:54:55;10.50;91.70
7658;DHT22;8462;53.156;8.220;2022-11-23T06:57:24;10.60;91.60
7658;DHT22;8462;53.156;8.220;2022-11-23T06:59:52;10.60;91.50
7658;DHT22;8462;53.156;8.220;2022-11-23T07:02:25;10.60;91.40
7658;DHT22;8462;53.156;8.220;2022-11-23T07:04:54;10.60;91.60
7658;DHT22;8462;53.156;8.220;2022-11-23T07:07:24;10.60;91.50
7658;DHT22;8462;53.156;8.220;2022-11-23T07:10:00;10.60;91.40
7658;DHT22;8462;53.156;8.220;2022-11-23T07:12:49;10.60;91.40
7658;DHT22;8462;53.156;8.220;2022-11-23T07:15:19;10.50;91.40
7658;DHT22;8462;53.156;8.220;2022-11-23T07:17:46;10.50;91.40
7658;DHT22;8462;53.156;8.220;2022-11-23T07:20:13;10.40;91.50
7658;DHT22;8462;53.156;8.220;2022-11-23T07:22:42;10.40;91.60
7658;DHT22;8462;53.156;8.220;2022-11-23T07:25:09;10.40;91.70
7658;DHT22;8462;53.156;8.220;2022-11-23T07:27:40;10.40;91.80
7658;DHT22;8462;53.156;8.220;2022-11-23T07:30:09;10.40;91.70
7658;DHT22;8462;53.156;8.220;2022-11-23T07:32:36;10.40;91.70
7658;DHT22;8462;53.156;8.220;2022-11-23T07:35:03;10.40;91.70
7658;DHT22;8462;53.156;8.220;2022-11-23T07:37:32;10.40;91.70
7658;DHT22;8462;53.156;8.220;2022-11-23T07:40:03;10.50;91.60
7658;DHT22;8462;53.156;8.220;2022-11-23T07:42:32;10.50;91.70
7658;DHT22;8462;53.156;8.220;2022-11-23T07:44:59;10.50;91.70
7658;DHT22;8462;53.156;8.220;2022-11-23T07:47:26;10.50;91.50
7658;DHT22;8462;53.156;8.220;2022-11-23T07:49:53;10.50;91.50
7658;DHT22;8462;53.156;8.220;2022-11-23T07:52:20;10.50;91.40
7658;DHT22;8462;53.156;8.220;2022-11-23T07:54:47;10.50;91.60
7658;DHT22;8462;53.156;8.220;2022-11-23T07:57:15;10.50;91.70
7658;DHT22;8462;53.156;8.220;2022-11-23T07:59:43;10.50;91.40
7658;DHT22;8462;53.156;8.220;2022-11-23T08:02:13;10.50;91.40
7658;DHT22;8462;53.156;8.220;2022-11-23T08:04:40;10.60;91.50
7658;DHT22;8462;53.156;8.220;2022-11-23T08:07:07;10.70;91.40
7658;DHT22;8462;53.156;8.220;2022-11-23T08:09:34;10.70;91.10
7658;DHT22;8462;53.156;8.220;2022-11-23T08:12:01;10.70;91.10
7658;DHT22;8462;53.156;8.220;2022-11-23T08:14:29;10.70;91.00
7658;DHT22;8462;53.156;8.220;2022-11-23T08:16:56;10.70;90.90
7658;DHT22;8462;53.156;8.220;2022-11-23T08:19:24;10.70;90.90
7658;DHT22;8462;53.156;8.220;2022-11-23T08:21:52;10.70;90.90
7658;DHT22;8462;53.156;8.220;2022-11-23T08:24:19;10.70;91.10
7658;DHT22;8462;53.156;8.220;2022-11-23T08:26:47;10.80;91.10
7658;DHT22;8462;53.156;8.220;2022-11-23T08:29:14;10.80;91.10
7658;DHT22;8462;53.156;8.220;2022-11-23T08:31:42;10.90;91.20
7658;DHT22;8462;53.156;8.220;2022-11-23T08:34:09;10.90;91.00
7658;DHT22;8462;53.156;8.220;2022-11-23T08:36:36;10.90;91.00
7658;DHT22;8462;53.156;8.220;2022-11-23T08:39:03;11.00;90.90
7658;DHT22;8462;53.156;8.220;2022-11-23T08:41:30;11.00;90.90
7658;DHT22;8462;53.156;8.220;2022-11-23T08:43:57;11.00;91.10
7658;DHT22;8462;53.156;8.220;2022-11-23T08:46:24;11.00;90.90
7658;DHT22;8462;53.156;8.220;2022-11-23T08:48:52;11.00;91.00
7658;DHT22;8462;53.156;8.220;2022-11-23T08:51:19;11.00;91.00
7658;DHT22;8462;53.156;8.220;2022-11-23T08:53:47;11.00;91.20
7658;DHT22;8462;53.156;8.220;2022-11-23T08:56:14;11.00;91.10
7658;DHT22;8462;53.156;8.220;2022-11-23T08:58:41;11.00;91.20
7658;DHT22;8462;53.156;8.220;2022-11-23T09:01:09;11.00;91.30
7658;DHT22;8462;53.156;8.220;2022-11-23T09:03:36;11.00;91.40
7658;DHT22;8462;53.156;8.220;2022-11-23T09:06:05;11.10;91.50
7658;DHT22;8462;53.156;8.220;2022-11-23T09:08:32;11.10;91.50
7658;DHT22;8462;53.156;8.220;2022-11-23T09:11:00;11.20;91.20
7658;DHT22;8462;53.156;8.220;2022-11-23T09:13:28;11.30;91.20
7658;DHT22;8462;53.156;8.220;2022-11-23T09:15:57;11.30;90.90
7658;DHT22;8462;53.156;8.220;2022-11-23T09:18:24;11.40;90.80
7658;DHT22;8462;53.156;8.220;2022-11-23T09:20:51;11.40;90.70
7658;DHT22;8462;53.156;8.220;2022-11-23T09:23:20;11.40;90.80
7658;DHT22;8462;53.156;8.220;2022-11-23T09:25:47;11.40;90.90
7658;DHT22;8462;53.156;8.220;2022-11-23T09:28:18;11.50;90.80
7658;DHT22;8462;53.156;8.220;2022-11-23T09:30:45;11.50;90.80
7658;DHT22;8462;53.156;8.220;2022-11-23T09:33:12;11.60;90.70
7658;DHT22;8462;53.156;8.220;2022-11-23T09:35:41;11.70;90.60
7658;DHT22;8462;53.156;8.220;2022-11-23T09:38:09;11.80;90.60
7658;DHT22;8462;53.156;8.220;2022-11-23T09:40:40;12.00;90.50
7658;DHT22;8462;53.156;8.220;2022-11-23T09:43:25;12.00;90.50
7658;DHT22;8462;53.156;8.220;2022-11-23T09:45:56;12.20;90.00
7658;DHT22;8462;53.156;8.220;2022-11-23T09:48:40;12.20;89.60
7658;DHT22;8462;53.156;8.220;2022-11-23T09:51:14;12.20;90.00
7658;DHT22;8462;53.156;8.220;2022-11-23T09:53:44;12.30;89.40
7658;DHT22;8462;53.156;8.220;2022-11-23T09:56:15;12.40;89.80
7658;DHT22;8462;53.156;8.220;2022-11-23T09:58:43;12.50;89.50
7658;DHT22;8462;53.156;8.220;2022-11-23T10:01:12;12.60;89.10
7658;DHT22;8462;53.156;8.220;2022-11-23T10:03:41;12.60;88.10
7658;DHT22;8462;53.156;8.220;2022-11-23T10:06:16;12.50;87.90
7658;DHT22;8462;53.156;8.220;2022-11-23T10:14:54;12.50;88.60
7658;DHT22;8462;53.156;8.220;2022-11-23T10:17:30;12.40;88.50
7658;DHT22;8462;53.156;8.220;2022-11-23T10:20:17;12.40;88.50
7658;DHT22;8462;53.156;8.220;2022-11-23T10:22:51;12.50;88.40
7658;DHT22;8462;53.156;8.220;2022-11-23T10:25:22;12.50;88.10
7658;DHT22;8462;53.156;8.220;2022-11-23T10:27:53;12.50;88.00
7658;DHT22;8462;53.156;8.220;2022-11-23T10:30:22;12.50;87.70
7658;DHT22;8462;53.156;8.220;2022-11-23T10:32:52;12.50;87.50
7658;DHT22;8462;53.156;8.220;2022-11-23T10:35:26;12.50;87.20
7658;DHT22;8462;53.156;8.220;2022-11-23T10:38:04;12.50;87.20
7658;DHT22;8462;53.156;8.220;2022-11-23T10:40:37;12.50;87.70
7658;DHT22;8462;53.156;8.220;2022-11-23T10:43:13;12.50;87.30
7658;DHT22;8462;53.156;8.220;2022-11-23T10:45:42;12.50;87.20
7658;DHT22;8462;53.156;8.220;2022-11-23T10:48:09;12.50;86.80
7658;DHT22;8462;53.156;8.220;2022-11-23T10:50:37;12.50;87.40
7658;DHT22;8462;53.156;8.220;2022-11-23T10:53:20;12.50;87.00
7658;DHT22;8462;53.156;8.220;2022-11-23T10:55:51;12.60;86.90
7658;DHT22;8462;53.156;8.220;2022-11-23T10:58:28;12.60;86.60
7658;DHT22;8462;53.156;8.220;2022-11-23T11:01:02;12.60;86.90
7658;DHT22;8462;53.156;8.220;2022-11-23T11:03:35;12.70;87.40
7658;DHT22;8462;53.156;8.220;2022-11-23T11:06:03;12.70;86.10
7658;DHT22;8462;53.156;8.220;2022-11-23T11:08:32;12.80;86.10
7658;DHT22;8462;53.156;8.220;2022-11-23T11:11:01;12.80;86.10
7658;DHT22;8462;53.156;8.220;2022-11-23T11:13:42;12.80;86.10
7658;DHT22;8462;53.156;8.220;2022-11-23T11:16:18;12.80;86.00
7658;DHT22;8462;53.156;8.220;2022-11-23T11:18:47;12.70;86.30
7658;DHT22;8462;53.156;8.220;2022-11-23T11:21:19;12.70;86.30
7658;DHT22;8462;53.156;8.220;2022-11-23T11:23:51;12.70;86.50
7658;DHT22;8462;53.156;8.220;2022-11-23T11:26:20;12.70;86.50
7658;DHT22;8462;53.156;8.220;2022-11-23T11:28:50;12.70;86.80
7658;DHT22;8462;53.156;8.220;2022-11-23T11:31:33;12.70;86.20
7658;DHT22;8462;53.156;8.220;2022-11-23T11:34:12;12.80;86.20
7658;DHT22;8462;53.156;8.220;2022-11-23T11:36:48;12.70;86.00
7658;DHT22;8462;53.156;8.220;2022-11-23T11:39:22;12.70;85.90
7658;DHT22;8462;53.156;8.220;2022-11-23T11:41:51;12.80;85.90
7658;DHT22;8462;53.156;8.220;2022-11-23T11:44:23;12.80;86.00
7658;DHT22;8462;53.156;8.220;2022-11-23T11:46:56;12.80;85.70
7658;DHT22;8462;53.156;8.220;2022-11-23T11:49:27;12.80;85.70
7658;DHT22;8462;53.156;8.220;2022-11-23T11:52:01;12.80;86.20
7658;DHT22;8462;53.156;8.220;2022-11-23T11:54:34;12.80;85.80
7658;DHT22;8462;53.156;8.220;2022-11-23T11:57:06;12.80;85.90
7658;DHT22;8462;53.156;8.220;2022-11-23T11:59:41;12.80;85.90
7658;DHT22;8462;53.156;8.220;2022-11-23T12:02:18;12.90;86.20
7658;DHT22;8462;53.156;8.220;2022-11-23T12:04:55;12.90;86.00
7658;DHT22;8462;53.156;8.220;2022-11-23T12:07:28;13.00;85.90
7658;DHT22;8462;53.156;8.220;2022-11-23T12:10:01;13.00;85.90
7658;DHT22;8462;53.156;8.220;2022-11-23T12:12:33;13.10;86.00
7658;DHT22;8462;53.156;8.220;2022-11-23T12:15:05;13.10;85.60
7658;DHT22;8462;53.156;8.220;2022-11-23T12:17:52;13.10;84.70
7658;DHT22;8462;53.156;8.220;2022-11-23T12:20:27;13.10;84.90
7658;DHT22;8462;53.156;8.220;2022-11-23T12:23:07;13.00;84.60
7658;DHT22;8462;53.156;8.220;2022-11-23T12:25:37;13.10;85.00
7658;DHT22;8462;53.156;8.220;2022-11-23T12:28:28;13.10;84.50
7658;DHT22;8462;53.156;8.220;2022-11-23T12:31:10;13.00;84.40
7658;DHT22;8462;53.156;8.220;2022-11-23T12:33:55;13.10;85.30
7658;DHT22;8462;53.156;8.220;2022-11-23T12:36:34;13.00;83.90
7658;DHT22;8462;53.156;8.220;2022-11-23T12:39:18;13.00;83.90
7658;DHT22;8462;53.156;8.220;2022-11-23T12:41:55;13.00;83.90
7658;DHT22;8462;53.156;8.220;2022-11-23T12:44:56;13.00;83.50
7658;DHT22;8462;53.156;8.220;2022-11-23T12:47:40;12.90;83.20
7658;DHT22;8462;53.156;8.220;2022-11-23T12:50:17;13.00;83.80
7658;DHT22;8462;53.156;8.220;2022-11-23T12:53:00;13.00;83.40
7658;DHT22;8462;53.156;8.220;2022-11-23T12:55:37;13.00;83.40
7658;DHT22;8462;53.156;8.220;2022-11-23T12:58:14;13.00;82.70
7658;DHT22;8462;53.156;8.220;2022-11-23T13:00:47;12.90;83.10
7658;DHT22;8462;53.156;8.220;2022-11-23T13:03:39;12.90;83.30
7658;DHT22;8462;53.156;8.220;2022-11-23T13:06:48;12.90;82.60
7658;DHT22;8462;53.156;8.220;2022-11-23T13:09:34;12.80;82.70
7658;DHT22;8462;53.156;8.220;2022-11-23T13:12:16;12.80;82.70
7658;DHT22;8462;53.156;8.220;2022-11-23T13:14:51;12.70;82.40
7658;DHT22;8462;53.156;8.220;2022-11-23T13:17:26;12.70;82.60
7658;DHT22;8462;53.156;8.220;2022-11-23T13:20:14;12.70;82.60
7658;DHT22;8462;53.156;8.220;2022-11-23T13:22:45;12.60;82.40
7658;DHT22;8462;53.156;8.220;2022-11-23T13:25:20;12.60;82.50
7658;DHT22;8462;53.156;8.220;2022-11-23T13:27:56;12.60;82.70
7658;DHT22;8462;53.156;8.220;2022-11-23T13:30:27;12.50;81.90
7658;DHT22;8462;53.156;8.220;2022-11-23T13:33:00;12.50;82.10
7658;DHT22;8462;53.156;8.220;2022-11-23T13:35:52;12.50;82.10
7658;DHT22;8462;53.156;8.220;2022-11-23T13:38:25;12.50;82.00
7658;DHT22;8462;53.156;8.220;2022-11-23T13:40:53;12.50;82.20
7658;DHT22;8462;53.156;8.220;2022-11-23T13:43:23;12.40;82.40
7658;DHT22;8462;53.156;8.220;2022-11-23T13:46:19;12.40;82.30
7658;DHT22;8462;53.156;8.220;2022-11-23T13:48:48;12.50;82.10
7658;DHT22;8462;53.156;8.220;2022-11-23T13:51:24;12.40;81.80
7658;DHT22;8462;53.156;8.220;2022-11-23T13:53:54;12.40;81.90
7658;DHT22;8462;53.156;8.220;2022-11-23T13:56:27;12.40;82.10
7658;DHT22;8462;53.156;8.220;2022-11-23T13:58:56;12.40;82.20
7658;DHT22;8462;53.156;8.220;2022-11-23T14:02:02;12.40;82.00
7658;DHT22;8462;53.156;8.220;2022-11-23T14:04:48;12.40;81.80
7658;DHT22;8462;53.156;8.220;2022-11-23T14:07:22;12.40;81.70
7658;DHT22;8462;53.156;8.220;2022-11-23T14:09:53;12.40;81.60
7658;DHT22;8462;53.156;8.220;2022-11-23T14:12:29;12.40;81.60
7658;DHT22;8462;53.156;8.220;2022-11-23T14:15:02;12.30;81.60
7658;DHT22;8462;53.156;8.220;2022-11-23T14:17:56;12.40;81.70
7658;DHT22;8462;53.156;8.220;2022-11-23T14:20:54;12.30;81.30
7658;DHT22;8462;53.156;8.220;2022-11-23T14:26:33;12.30;81.70
7658;DHT22;8462;53.156;8.220;2022-11-23T14:29:33;12.30;81.60
7658;DHT22;8462;53.156;8.220;2022-11-23T14:32:16;12.20;81.50
7658;DHT22;8462;53.156;8.220;2022-11-23T14:34:56;12.20;81.40
7658;DHT22;8462;53.156;8.220;2022-11-23T14:37:41;12.20;81.60
7658;DHT22;8462;53.156;8.220;2022-11-23T14:40:16;12.10;81.80
7658;DHT22;8462;53.156;8.220;2022-11-23T14:42:51;12.10;81.80
7658;DHT22;8462;53.156;8.220;2022-11-23T14:45:20;12.10;81.70
7658;DHT22;8462;53.156;8.220;2022-11-23T14:47:48;12.00;81.60
7658;DHT22;8462;53.156;8.220;2022-11-23T14:50:25;12.00;81.70
7658;DHT22;8462;53.156;8.220;2022-11-23T14:52:54;12.00;81.70
7658;DHT22;8462;53.156;8.220;2022-11-23T14:55:25;11.90;81.70
7658;DHT22;8462;53.156;8.220;2022-11-23T14:57:57;11.90;81.80
7658;DHT22;8462;53.156;8.220;2022-11-23T15:00:30;11.80;81.70
7658;DHT22;8462;53.156;8.220;2022-11-23T15:03:03;11.80;81.90
7658;DHT22;8462;53.156;8.220;2022-11-23T15:05:33;11.70;81.90
7658;DHT22;8462;53.156;8.220;2022-11-23T15:08:03;11.70;82.00
7658;DHT22;8462;53.156;8.220;2022-11-23T15:10:39;11.60;82.10
7658;DHT22;8462;53.156;8.220;2022-11-23T15:13:20;11.60;82.30
7658;DHT22;8462;53.156;8.220;2022-11-23T15:15:49;11.50;82.30
7658;DHT22;8462;53.156;8.220;2022-11-23T15:18:31;11.40;82.30
7658;DHT22;8462;53.156;8.220;2022-11-23T15:21:02;11.40;82.30
7658;DHT22;8462;53.156;8.220;2022-11-23T15:23:33;11.30;82.00
7658;DHT22;8462;53.156;8.220;2022-11-23T15:26:03;11.20;81.80
7658;DHT22;8462;53.156;8.220;2022-11-23T15:28:34;11.30;81.70
7658;DHT22;8462;53.156;8.220;2022-11-23T15:31:16;11.20;81.60
7658;DHT22;8462;53.156;8.220;2022-11-23T15:33:46;11.20;81.60
7658;DHT22;8462;53.156;8.220;2022-11-23T15:36:16;11.10;81.50
7658;DHT22;8462;53.156;8.220;2022-11-23T15:38:44;11.10;81.50
7658;DHT22;8462;53.156;8.220;2022-11-23T15:41:11;11.00;81.50
7658;DHT22;8462;53.156;8.220;2022-11-23T15:43:52;11.00;81.60
7658;DHT22;8462;53.156;8.220;2022-11-23T15:46:19;10.90;81.70
7658;DHT22;8462;53.156;8.220;2022-11-23T15:48:51;10.90;81.70
7658;DHT22;8462;53.156;8.220;2022-11-23T15:51:25;10.90;81.90
7658;DHT22;8462;53.156;8.220;2022-11-23T15:53:53;10.80;81.90
7658;DHT22;8462;53.156;8.220;2022-11-23T15:56:22;10.80;82.10
7658;DHT22;8462;53.156;8.220;2022-11-23T15:58:52;10.70;82.10
7658;DHT22;8462;53.156;8.220;2022-11-23T16:01:20;10.70;82.30
7658;DHT22;8462;53.156;8.220;2022-11-23T16:03:49;10.70;82.40
7658;DHT22;8462;53.156;8.220;2022-11-23T16:06:33;10.60;82.40
7658;DHT22;8462;53.156;8.220;2022-11-23T16:09:02;10.60;82.60
7658;DHT22;8462;53.156;8.220;2022-11-23T16:11:32;10.50;82.60
7658;DHT22;8462;53.156;8.220;2022-11-23T16:14:17;10.40;82.70
7658;DHT22;8462;53.156;8.220;2022-11-23T16:16:46;10.40;82.90
7658;DHT22;8462;53.156;8.220;2022-11-23T16:19:24;10.40;82.90
7658;DHT22;8462;53.156;8.220;2022-11-23T16:21:55;10.40;83.00
7658;DHT22;8462;53.156;8.220;2022-11-23T16:24:24;10.30;82.90
7658;DHT22;8462;53.156;8.220;2022-11-23T16:26:51;10.30;82.90
7658;DHT22;8462;53.156;8.220;2022-11-23T16:29:24;10.30;83.00
7658;DHT22;8462;53.156;8.220;2022-11-23T16:31:54;10.20;83.20
7658;DHT22;8462;53.156;8.220;2022-11-23T16:34:22;10.20;83.10
7658;DHT22;8462;53.156;8.220;2022-11-23T16:36:49;10.20;83.40
7658;DHT22;8462;53.156;8.220;2022-11-23T16:39:17;10.10;83.30
7658;DHT22;8462;53.156;8.220;2022-11-23T16:41:44;10.10;83.50